createdAt,value
2019-04-26T00:00:24.067Z,808.20
2019-04-26T00:01:24.077Z,808.29
2019-04-26T00:02:24.086Z,808.38
2019-04-26T00:03:24.096Z,808.34
2019-04-26T00:04:24.114Z,808.33
2019-04-26T00:05:34.023Z,808.26
2019-04-26T00:06:24.142Z,808.20
2019-04-26T00:07:24.145Z,808.15
2019-04-26T00:08:24.157Z,808.22
2019-04-26T00:09:24.167Z,808.28
2019-04-26T00:10:24.182Z,808.29
2019-04-26T00:11:24.197Z,808.31
2019-04-26T00:12:24.206Z,808.27
2019-04-26T00:13:24.214Z,808.20
2019-04-26T00:14:24.226Z,808.15
2019-04-26T00:15:24.237Z,808.19
2019-04-26T00:16:24.255Z,808.32
2019-04-26T00:17:24.260Z,808.40
2019-04-26T00:18:24.270Z,808.38
2019-04-26T00:19:24.288Z,808.37
2019-04-26T00:20:24.297Z,808.40
2019-04-26T00:21:24.308Z,808.41
2019-04-26T00:22:24.324Z,808.42
2019-04-26T00:23:24.331Z,808.41
2019-04-26T00:24:24.347Z,808.43
2019-04-26T00:25:24.356Z,808.48
2019-04-26T00:26:24.368Z,808.54
2019-04-26T00:27:24.375Z,808.47
2019-04-26T00:28:24.385Z,808.37
2019-04-26T00:29:24.398Z,808.27
2019-04-26T00:30:24.413Z,808.27
2019-04-26T00:31:24.421Z,808.25
2019-04-26T00:32:24.433Z,808.29
2019-04-26T00:33:24.448Z,808.32
2019-04-26T00:34:24.457Z,808.36
2019-04-26T00:35:24.463Z,808.39
2019-04-26T00:36:24.477Z,808.34
2019-04-26T00:37:24.488Z,808.32
2019-04-26T00:38:24.497Z,808.36
2019-04-26T00:39:25.095Z,808.39
2019-04-26T00:40:24.518Z,808.49
2019-04-26T00:41:24.530Z,808.55
2019-04-26T00:42:24.543Z,808.51
2019-04-26T00:43:24.552Z,808.55
2019-04-26T00:44:24.565Z,808.57
2019-04-26T00:45:24.574Z,808.57
2019-04-26T00:46:24.583Z,808.55
2019-04-26T00:47:24.594Z,808.60
2019-04-26T00:48:24.606Z,808.66
2019-04-26T00:49:24.617Z,808.60
2019-04-26T00:50:24.632Z,808.48
2019-04-26T00:51:24.638Z,808.51
2019-04-26T00:52:24.653Z,808.52
2019-04-26T00:53:24.660Z,808.57
2019-04-26T00:54:24.669Z,808.59
2019-04-26T00:55:24.680Z,808.57
2019-04-26T00:56:24.713Z,808.58
2019-04-26T00:57:24.704Z,808.53
2019-04-26T00:58:24.713Z,808.56
2019-04-26T00:59:24.767Z,808.62
2019-04-26T01:00:24.735Z,808.67
2019-04-26T01:01:24.955Z,808.71
2019-04-26T01:02:25.197Z,808.72
2019-04-26T01:03:25.030Z,808.78
2019-04-26T01:04:25.066Z,808.80
2019-04-26T01:05:25.266Z,808.84
2019-04-26T01:06:25.104Z,808.82
2019-04-26T01:07:25.329Z,808.72
2019-04-26T01:08:25.481Z,808.77
2019-04-26T01:09:25.677Z,808.71
2019-04-26T01:10:25.808Z,808.75
2019-04-26T01:11:25.955Z,808.75
2019-04-26T01:12:25.995Z,808.75
2019-04-26T01:13:24.880Z,808.77
2019-04-26T01:14:24.884Z,808.72
2019-04-26T01:15:24.897Z,808.58
2019-04-26T01:16:24.905Z,808.43
2019-04-26T01:17:24.917Z,808.45
2019-04-26T01:18:24.924Z,808.40
2019-04-26T01:19:24.935Z,808.42
2019-04-26T01:20:24.945Z,808.37
2019-04-26T01:21:24.956Z,808.32
2019-04-26T01:22:25.337Z,808.36
2019-04-26T01:23:25.153Z,808.46
2019-04-26T01:24:25.375Z,808.46
2019-04-26T01:25:25.320Z,808.52
2019-04-26T01:26:25.221Z,808.52
2019-04-26T01:27:25.528Z,808.60
2019-04-26T01:28:25.833Z,808.66
2019-04-26T01:29:25.938Z,808.71
2019-04-26T01:30:25.860Z,808.75
2019-04-26T01:31:25.973Z,808.70
2019-04-26T01:32:26.105Z,808.67
2019-04-26T01:33:26.062Z,808.63
2019-04-26T01:34:26.139Z,808.52
2019-04-26T01:35:26.095Z,808.52
2019-04-26T01:36:25.113Z,808.52
2019-04-26T01:37:25.121Z,808.62
2019-04-26T01:38:25.683Z,808.64
2019-04-26T01:39:25.812Z,808.64
2019-04-26T01:40:26.063Z,808.60
2019-04-26T01:41:26.128Z,808.68
2019-04-26T01:42:26.304Z,808.81
2019-04-26T01:43:25.181Z,808.89
2019-04-26T01:44:25.195Z,808.94
2019-04-26T01:45:25.815Z,808.86
2019-04-26T01:46:25.217Z,808.81
2019-04-26T01:47:26.191Z,808.81
2019-04-26T01:48:25.235Z,808.77
2019-04-26T01:49:26.178Z,808.75
2019-04-26T01:50:25.336Z,808.74
2019-04-26T01:51:25.277Z,808.82
2019-04-26T01:52:25.672Z,808.78
2019-04-26T01:53:25.281Z,808.81
2019-04-26T01:54:25.794Z,808.79
2019-04-26T01:55:25.302Z,808.73
2019-04-26T01:56:25.315Z,808.72
2019-04-26T01:57:25.334Z,808.73
2019-04-26T01:58:25.337Z,808.73
2019-04-26T01:59:25.390Z,808.63
2019-04-26T02:00:25.620Z,808.54
2019-04-26T02:01:25.426Z,808.45
2019-04-26T02:02:25.662Z,808.46
2019-04-26T02:03:25.631Z,808.50
2019-04-26T02:04:25.754Z,808.49
2019-04-26T02:05:25.886Z,808.58
2019-04-26T02:06:32.030Z,808.60
2019-04-26T02:07:26.101Z,808.65
2019-04-26T02:08:26.249Z,808.57
2019-04-26T02:09:26.337Z,808.54
2019-04-26T02:10:26.574Z,808.53
2019-04-26T02:11:25.458Z,808.57
2019-04-26T02:12:25.469Z,808.62
2019-04-26T02:13:25.477Z,808.70
2019-04-26T02:14:25.486Z,808.71
2019-04-26T02:15:25.633Z,808.77
2019-04-26T02:16:25.503Z,808.79
2019-04-26T02:17:25.509Z,808.78
2019-04-26T02:18:25.576Z,808.83
2019-04-26T02:19:25.798Z,808.76
2019-04-26T02:20:25.634Z,808.83
2019-04-26T02:21:26.425Z,808.82
2019-04-26T02:22:25.918Z,808.72
2019-04-26T02:23:26.340Z,808.71
2019-04-26T02:24:26.377Z,808.75
2019-04-26T02:25:26.024Z,808.71
2019-04-26T02:26:26.578Z,808.72
2019-04-26T02:27:26.245Z,808.68
2019-04-26T02:28:26.698Z,808.66
2019-04-26T02:29:26.752Z,808.73
2019-04-26T02:30:27.080Z,808.71
2019-04-26T02:31:27.304Z,808.73
2019-04-26T02:32:27.222Z,808.69
2019-04-26T02:33:27.493Z,808.62
2019-04-26T02:34:27.963Z,808.64
2019-04-26T02:35:27.079Z,808.69
2019-04-26T02:36:44.983Z,808.79
2019-04-26T02:37:27.012Z,808.82
2019-04-26T02:38:27.367Z,808.85
2019-04-26T02:39:27.478Z,808.87
2019-04-26T02:40:27.549Z,808.78
2019-04-26T02:41:27.464Z,808.84
2019-04-26T02:42:26.562Z,808.82
2019-04-26T02:43:26.421Z,808.82
2019-04-26T02:44:26.694Z,808.72
2019-04-26T02:45:26.942Z,808.68
2019-04-26T02:46:28.445Z,808.76
2019-04-26T02:47:26.948Z,808.77
2019-04-26T02:48:27.099Z,808.89
2019-04-26T02:49:27.471Z,808.95
2019-04-26T02:50:28.308Z,808.92
2019-04-26T02:51:28.465Z,808.86
2019-04-26T02:52:25.834Z,808.69
2019-04-26T02:53:25.841Z,808.62
2019-04-26T02:54:25.925Z,808.64
2019-04-26T02:55:25.860Z,808.68
2019-04-26T02:56:25.873Z,808.66
2019-04-26T02:57:25.890Z,808.72
2019-04-26T02:58:25.895Z,808.64
2019-04-26T02:59:25.899Z,808.65
2019-04-26T03:00:25.898Z,808.66
2019-04-26T03:01:25.910Z,808.69
2019-04-26T03:02:25.919Z,808.79
2019-04-26T03:03:25.931Z,808.83
2019-04-26T03:04:25.934Z,808.90
2019-04-26T03:05:25.942Z,808.90
2019-04-26T03:06:25.949Z,808.92
2019-04-26T03:07:25.961Z,808.93
2019-04-26T03:08:25.977Z,808.93
2019-04-26T03:09:25.979Z,808.92
2019-04-26T03:10:25.985Z,808.91
2019-04-26T03:11:26.005Z,808.87
2019-04-26T03:12:26.004Z,808.76
2019-04-26T03:13:26.015Z,808.74
2019-04-26T03:14:26.023Z,808.90
2019-04-26T03:15:26.032Z,808.93
2019-04-26T03:16:26.035Z,808.90
2019-04-26T03:17:26.045Z,808.85
2019-04-26T03:18:26.054Z,808.83
2019-04-26T03:19:26.063Z,808.84
2019-04-26T03:20:26.068Z,808.87
2019-04-26T03:21:26.076Z,808.95
2019-04-26T03:22:26.088Z,808.96
2019-04-26T03:23:41.328Z,809.00
2019-04-26T03:24:26.128Z,808.99
2019-04-26T03:25:26.113Z,808.97
2019-04-26T03:26:26.118Z,808.96
2019-04-26T03:27:26.141Z,808.97
2019-04-26T03:28:26.135Z,809.05
2019-04-26T03:29:26.141Z,809.08
2019-04-26T03:30:26.165Z,809.11
2019-04-26T03:31:26.169Z,809.14
2019-04-26T03:32:26.177Z,809.11
2019-04-26T03:33:26.296Z,809.14
2019-04-26T03:34:26.179Z,809.15
2019-04-26T03:35:26.210Z,809.21
2019-04-26T03:36:26.198Z,809.19
2019-04-26T03:37:26.206Z,809.13
2019-04-26T03:38:26.212Z,809.10
2019-04-26T03:39:26.224Z,809.18
2019-04-26T03:40:26.227Z,809.29
2019-04-26T03:41:26.237Z,809.18
2019-04-26T03:42:26.249Z,809.15
2019-04-26T03:43:26.252Z,809.09
2019-04-26T03:44:26.283Z,809.00
2019-04-26T03:45:26.270Z,809.01
2019-04-26T03:46:26.276Z,809.08
2019-04-26T03:47:26.284Z,809.12
2019-04-26T03:48:26.293Z,809.20
2019-04-26T03:49:26.305Z,809.19
2019-04-26T03:50:26.306Z,809.24
2019-04-26T03:51:26.315Z,809.43
2019-04-26T03:52:26.326Z,809.40
2019-04-26T03:53:26.332Z,809.43
2019-04-26T03:54:26.338Z,809.43
2019-04-26T03:55:26.350Z,809.41
2019-04-26T03:56:26.357Z,809.40
2019-04-26T03:57:26.366Z,809.40
2019-04-26T03:58:26.368Z,809.36
2019-04-26T03:59:26.376Z,809.33
2019-04-26T04:00:26.382Z,809.42
2019-04-26T04:01:26.389Z,809.44
2019-04-26T04:02:26.401Z,809.46
2019-04-26T04:03:27.253Z,809.45
2019-04-26T04:04:26.415Z,809.43
2019-04-26T04:05:26.419Z,809.62
2019-04-26T04:06:26.433Z,809.59
2019-04-26T04:07:36.726Z,809.61
2019-04-26T04:08:26.446Z,809.66
2019-04-26T04:09:26.448Z,809.65
2019-04-26T04:10:26.457Z,809.72
2019-04-26T04:11:26.523Z,809.74
2019-04-26T04:12:26.629Z,809.81
2019-04-26T04:13:26.482Z,809.80
2019-04-26T04:14:26.643Z,809.80
2019-04-26T04:15:26.505Z,809.82
2019-04-26T04:16:26.505Z,809.75
2019-04-26T04:17:26.515Z,809.85
2019-04-26T04:18:26.514Z,809.80
2019-04-26T04:19:26.523Z,809.83
2019-04-26T04:20:26.539Z,809.86
2019-04-26T04:21:26.542Z,809.81
2019-04-26T04:22:26.546Z,809.78
2019-04-26T04:23:26.556Z,809.88
2019-04-26T04:24:26.561Z,809.94
2019-04-26T04:25:26.568Z,809.99
2019-04-26T04:26:26.576Z,809.98
2019-04-26T04:27:26.602Z,810.00
2019-04-26T04:28:26.592Z,810.03
2019-04-26T04:29:40.094Z,810.06
2019-04-26T04:30:26.604Z,810.05
2019-04-26T04:31:26.616Z,810.12
2019-04-26T04:32:26.638Z,810.09
2019-04-26T04:33:26.634Z,810.09
2019-04-26T04:34:26.633Z,810.09
2019-04-26T04:35:26.640Z,810.14
2019-04-26T04:36:26.663Z,810.16
2019-04-26T04:37:26.651Z,810.13
2019-04-26T04:38:26.663Z,810.08
2019-04-26T04:39:26.668Z,810.13
2019-04-26T04:40:26.676Z,810.23
2019-04-26T04:41:26.687Z,810.20
2019-04-26T04:42:26.686Z,810.14
2019-04-26T04:43:26.892Z,810.14
2019-04-26T04:44:26.703Z,810.21
2019-04-26T04:45:26.710Z,810.17
2019-04-26T04:46:26.722Z,810.24
2019-04-26T04:47:30.808Z,810.08
2019-04-26T04:48:26.730Z,810.17
2019-04-26T04:49:26.747Z,810.27
2019-04-26T04:50:26.757Z,810.48
2019-04-26T04:51:26.751Z,810.59
2019-04-26T04:52:26.761Z,810.64
2019-04-26T04:53:26.769Z,810.66
2019-04-26T04:54:26.776Z,810.69
2019-04-26T04:55:26.778Z,810.62
2019-04-26T04:56:26.788Z,810.63
2019-04-26T04:57:26.799Z,810.59
2019-04-26T04:58:26.801Z,810.59
2019-04-26T04:59:26.810Z,810.56
2019-04-26T05:00:26.813Z,810.54
2019-04-26T05:01:26.821Z,810.48
2019-04-26T05:02:26.833Z,810.52
2019-04-26T05:03:26.836Z,810.50
2019-04-26T05:04:26.845Z,810.46
2019-04-26T05:05:26.856Z,810.50
2019-04-26T05:06:26.860Z,810.45
2019-04-26T05:07:26.867Z,810.45
2019-04-26T05:08:26.872Z,810.47
2019-04-26T05:09:26.880Z,810.54
2019-04-26T05:10:26.888Z,810.55
2019-04-26T05:11:26.891Z,810.59
2019-04-26T05:12:26.906Z,810.60
2019-04-26T05:13:26.911Z,810.63
2019-04-26T05:14:26.916Z,810.65
2019-04-26T05:15:26.924Z,810.63
2019-04-26T05:16:26.933Z,810.64
2019-04-26T05:17:26.936Z,810.65
2019-04-26T05:18:26.943Z,810.67
2019-04-26T05:19:26.957Z,810.60
2019-04-26T05:20:26.961Z,810.54
2019-04-26T05:21:26.967Z,810.52
2019-04-26T05:22:26.972Z,810.58
2019-04-26T05:23:26.979Z,810.71
2019-04-26T05:24:26.990Z,810.79
2019-04-26T05:25:26.994Z,810.80
2019-04-26T05:26:27.004Z,810.82
2019-04-26T05:27:27.026Z,810.78
2019-04-26T05:28:27.017Z,810.84
2019-04-26T05:29:27.024Z,810.80
2019-04-26T05:30:27.032Z,810.85
2019-04-26T05:31:27.042Z,810.87
2019-04-26T05:32:27.051Z,810.77
2019-04-26T05:33:27.054Z,810.75
2019-04-26T05:34:27.064Z,810.74
2019-04-26T05:35:27.071Z,810.73
2019-04-26T05:36:27.078Z,810.80
2019-04-26T05:37:27.088Z,810.86
2019-04-26T05:38:27.093Z,810.84
2019-04-26T05:39:27.098Z,810.86
2019-04-26T05:40:27.105Z,810.84
2019-04-26T05:41:27.113Z,810.88
2019-04-26T05:42:27.124Z,811.02
2019-04-26T05:43:27.130Z,811.04
2019-04-26T05:44:27.138Z,811.04
2019-04-26T05:45:27.145Z,811.03
2019-04-26T05:46:27.148Z,810.96
2019-04-26T05:47:27.160Z,810.85
2019-04-26T05:48:27.164Z,810.86
2019-04-26T05:49:27.171Z,810.89
2019-04-26T05:50:27.177Z,811.02
2019-04-26T05:51:27.187Z,811.04
2019-04-26T05:52:27.194Z,811.11
2019-04-26T05:53:27.205Z,811.17
2019-04-26T05:54:27.206Z,811.09
2019-04-26T05:55:27.216Z,811.12
2019-04-26T05:56:27.224Z,811.13
2019-04-26T05:57:27.236Z,811.15
2019-04-26T05:58:27.237Z,811.14
2019-04-26T05:59:27.248Z,811.06
2019-04-26T06:00:27.253Z,811.10
2019-04-26T06:01:27.260Z,811.10
2019-04-26T06:02:27.269Z,811.10
2019-04-26T06:03:27.271Z,811.14
2019-04-26T06:04:27.279Z,811.13
2019-04-26T06:05:27.290Z,811.13
2019-04-26T06:06:27.301Z,811.15
2019-04-26T06:07:27.303Z,811.11
2019-04-26T06:08:31.521Z,811.01
2019-04-26T06:09:27.315Z,811.09
2019-04-26T06:10:27.324Z,811.09
2019-04-26T06:11:27.330Z,811.18
2019-04-26T06:12:27.344Z,811.20
2019-04-26T06:13:27.345Z,811.22
2019-04-26T06:14:27.356Z,811.27
2019-04-26T06:15:27.358Z,811.28
2019-04-26T06:16:27.365Z,811.31
2019-04-26T06:17:27.378Z,811.31
2019-04-26T06:18:27.384Z,811.30
2019-04-26T06:19:27.386Z,811.35
2019-04-26T06:20:27.394Z,811.38
2019-04-26T06:21:27.412Z,811.45
2019-04-26T06:22:27.407Z,811.51
2019-04-26T06:23:27.417Z,811.55
2019-04-26T06:24:27.425Z,811.59
2019-04-26T06:25:27.434Z,811.61
2019-04-26T06:26:27.441Z,811.62
2019-04-26T06:27:27.449Z,811.66
2019-04-26T06:28:27.454Z,811.68
2019-04-26T06:29:27.458Z,811.72
2019-04-26T06:30:27.464Z,811.74
2019-04-26T06:31:27.472Z,811.75
2019-04-26T06:32:27.577Z,811.81
2019-04-26T06:33:27.489Z,811.78
2019-04-26T06:34:27.497Z,811.73
2019-04-26T06:35:27.504Z,811.72
2019-04-26T06:36:27.510Z,811.70
2019-04-26T06:37:27.515Z,811.72
2019-04-26T06:38:27.527Z,811.72
2019-04-26T06:39:27.538Z,811.76
2019-04-26T06:40:27.538Z,811.76
2019-04-26T06:41:27.551Z,811.78
2019-04-26T06:42:27.554Z,811.75
2019-04-26T06:43:27.559Z,811.77
2019-04-26T06:44:27.570Z,811.78
2019-04-26T06:45:27.580Z,811.77
2019-04-26T06:46:27.585Z,811.73
2019-04-26T06:47:27.593Z,811.68
2019-04-26T06:48:27.600Z,811.70
2019-04-26T06:49:27.607Z,811.73
2019-04-26T06:50:27.613Z,811.70
2019-04-26T06:51:27.623Z,811.71
2019-04-26T06:52:27.635Z,811.77
2019-04-26T06:53:27.647Z,811.80
2019-04-26T06:54:27.645Z,811.72
2019-04-26T06:55:27.654Z,811.68
2019-04-26T06:56:27.658Z,811.71
2019-04-26T06:57:27.663Z,811.67
2019-04-26T06:58:27.671Z,811.64
2019-04-26T06:59:36.163Z,811.61
2019-04-26T07:00:27.688Z,811.61
2019-04-26T07:01:27.692Z,811.66
2019-04-26T07:02:27.699Z,811.62
2019-04-26T07:03:27.710Z,811.68
2019-04-26T07:04:27.713Z,811.69
2019-04-26T07:05:27.729Z,811.76
2019-04-26T07:06:34.897Z,811.82
2019-04-26T07:07:27.738Z,811.81
2019-04-26T07:08:27.746Z,811.73
2019-04-26T07:09:27.750Z,811.74
2019-04-26T07:10:27.756Z,811.71
2019-04-26T07:11:27.766Z,811.73
2019-04-26T07:12:27.773Z,811.74
2019-04-26T07:13:27.782Z,811.83
2019-04-26T07:14:27.788Z,811.90
2019-04-26T07:15:28.933Z,811.81
2019-04-26T07:16:27.803Z,811.80
2019-04-26T07:17:27.813Z,811.75
2019-04-26T07:18:27.812Z,811.80
2019-04-26T07:19:27.820Z,811.76
2019-04-26T07:20:27.828Z,811.74
2019-04-26T07:21:27.835Z,811.96
2019-04-26T07:22:35.183Z,812.06
2019-04-26T07:23:27.847Z,812.16
2019-04-26T07:24:27.854Z,812.22
2019-04-26T07:25:27.869Z,812.24
2019-04-26T07:26:27.867Z,812.29
2019-04-26T07:27:27.875Z,812.33
2019-04-26T07:28:27.974Z,812.40
2019-04-26T07:29:27.891Z,812.38
2019-04-26T07:30:27.955Z,812.53
2019-04-26T07:31:27.902Z,812.64
2019-04-26T07:32:27.911Z,812.61
2019-04-26T07:33:27.919Z,812.56
2019-04-26T07:34:27.925Z,812.66
2019-04-26T07:35:27.932Z,812.72
2019-04-26T07:36:27.936Z,812.77
2019-04-26T07:37:27.979Z,812.74
2019-04-26T07:38:27.950Z,812.86
2019-04-26T07:39:27.954Z,812.84
2019-04-26T07:40:27.965Z,812.85
2019-04-26T07:41:27.969Z,812.75
2019-04-26T07:42:27.973Z,812.82
2019-04-26T07:43:27.980Z,812.84
2019-04-26T07:44:27.987Z,812.72
2019-04-26T07:45:27.993Z,812.77
2019-04-26T07:46:28.002Z,812.68
2019-04-26T07:47:28.005Z,812.67
2019-04-26T07:48:28.016Z,812.62
2019-04-26T07:49:28.018Z,812.63
2019-04-26T07:50:28.029Z,812.55
2019-04-26T07:51:28.029Z,812.68
2019-04-26T07:52:28.038Z,812.79
2019-04-26T07:53:28.046Z,812.75
2019-04-26T07:54:28.050Z,812.80
2019-04-26T07:55:28.057Z,812.82
2019-04-26T07:56:28.065Z,812.85
2019-04-26T07:57:28.069Z,812.84
2019-04-26T07:58:28.075Z,812.94
2019-04-26T07:59:28.081Z,812.84
2019-04-26T08:00:28.087Z,812.85
2019-04-26T08:01:28.094Z,812.86
2019-04-26T08:02:28.097Z,812.86
2019-04-26T08:03:28.101Z,812.84
2019-04-26T08:04:29.542Z,812.73
2019-04-26T08:05:28.112Z,812.73
2019-04-26T08:06:28.116Z,812.71
2019-04-26T08:07:28.121Z,812.69
2019-04-26T08:08:28.132Z,812.71
2019-04-26T08:09:28.134Z,812.69
2019-04-26T08:10:28.142Z,812.68
2019-04-26T08:11:28.150Z,812.68
2019-04-26T08:12:28.151Z,812.66
2019-04-26T08:13:28.161Z,812.64
2019-04-26T08:14:28.163Z,812.67
2019-04-26T08:15:28.170Z,812.64
2019-04-26T08:16:28.180Z,812.67
2019-04-26T08:17:28.181Z,812.67
2019-04-26T08:18:28.189Z,812.71
2019-04-26T08:19:28.196Z,812.80
2019-04-26T08:20:31.894Z,812.80
2019-04-26T08:21:31.707Z,812.77
2019-04-26T08:22:28.710Z,812.84
2019-04-26T08:23:41.181Z,812.89
2019-04-26T08:24:28.626Z,812.84
2019-04-26T08:25:28.236Z,812.85
2019-04-26T08:26:28.231Z,812.86
2019-04-26T08:27:28.241Z,812.72
2019-04-26T08:28:28.249Z,812.76
2019-04-26T08:29:29.836Z,812.74
2019-04-26T08:30:28.255Z,812.76
2019-04-26T08:31:28.261Z,812.72
2019-04-26T08:32:31.958Z,812.80
2019-04-26T08:33:28.282Z,812.73
2019-04-26T08:34:31.750Z,812.71
2019-04-26T08:35:28.283Z,812.65
2019-04-26T08:36:28.730Z,812.60
2019-04-26T08:37:28.300Z,812.49
2019-04-26T08:38:28.302Z,812.44
2019-04-26T08:39:44.309Z,812.38
2019-04-26T08:40:31.294Z,812.35
2019-04-26T08:41:28.318Z,812.43
2019-04-26T08:42:28.325Z,812.46
2019-04-26T08:43:30.915Z,812.45
2019-04-26T08:44:28.343Z,812.46
2019-04-26T08:45:28.346Z,812.45
2019-04-26T08:46:28.445Z,812.52
2019-04-26T08:47:28.353Z,812.54
2019-04-26T08:48:29.334Z,812.57
2019-04-26T08:49:28.420Z,812.70
2019-04-26T08:50:28.378Z,812.68
2019-04-26T08:51:28.381Z,812.67
2019-04-26T08:52:28.383Z,812.67
2019-04-26T08:53:28.406Z,812.72
2019-04-26T08:54:28.399Z,812.72
2019-04-26T08:55:28.407Z,812.69
2019-04-26T08:56:28.412Z,812.61
2019-04-26T08:57:28.418Z,812.67
2019-04-26T08:58:28.423Z,812.64
2019-04-26T08:59:28.429Z,812.60
2019-04-26T09:00:28.436Z,812.61
2019-04-26T09:01:28.438Z,812.53
2019-04-26T09:02:28.447Z,812.48
2019-04-26T09:03:28.452Z,812.33
2019-04-26T09:04:28.454Z,812.37
2019-04-26T09:05:28.463Z,812.30
2019-04-26T09:06:28.471Z,812.35
2019-04-26T09:07:28.475Z,812.25
2019-04-26T09:08:28.507Z,812.42
2019-04-26T09:09:28.489Z,812.42
2019-04-26T09:10:28.494Z,812.47
2019-04-26T09:11:33.326Z,812.46
2019-04-26T09:12:28.501Z,812.49
2019-04-26T09:13:28.508Z,812.52
2019-04-26T09:14:28.518Z,812.58
2019-04-26T09:15:28.520Z,812.61
2019-04-26T09:16:28.529Z,812.69
2019-04-26T09:17:32.186Z,812.68
2019-04-26T09:18:28.542Z,812.65
2019-04-26T09:19:30.455Z,812.64
2019-04-26T09:20:29.952Z,812.60
2019-04-26T09:21:29.013Z,812.56
2019-04-26T09:22:28.563Z,812.57
2019-04-26T09:23:39.482Z,812.58
2019-04-26T09:24:28.580Z,812.63
2019-04-26T09:25:30.260Z,812.66
2019-04-26T09:26:28.701Z,812.70
2019-04-26T09:27:28.598Z,812.70
2019-04-26T09:28:28.611Z,812.71
2019-04-26T09:29:30.446Z,812.69
2019-04-26T09:30:34.124Z,812.71
2019-04-26T09:31:28.622Z,812.70
2019-04-26T09:32:29.425Z,812.72
2019-04-26T09:33:31.770Z,812.72
2019-04-26T09:34:28.642Z,812.73
2019-04-26T09:35:28.656Z,812.73
2019-04-26T09:36:28.657Z,812.72
2019-04-26T09:37:28.666Z,812.74
2019-04-26T09:38:28.671Z,812.71
2019-04-26T09:39:28.678Z,812.74
2019-04-26T09:40:28.682Z,812.73
2019-04-26T09:41:30.827Z,812.73
2019-04-26T09:42:28.696Z,812.72
2019-04-26T09:43:28.707Z,812.71
2019-04-26T09:44:28.711Z,812.66
2019-04-26T09:45:28.720Z,812.67
2019-04-26T09:46:28.730Z,812.72
2019-04-26T09:47:28.736Z,812.71
2019-04-26T09:48:28.739Z,812.75
2019-04-26T09:49:28.752Z,812.82
2019-04-26T09:50:28.751Z,812.89
2019-04-26T09:51:28.759Z,812.88
2019-04-26T09:52:28.769Z,812.93
2019-04-26T09:53:28.780Z,812.88
2019-04-26T09:54:28.784Z,812.88
2019-04-26T09:55:35.146Z,812.94
2019-04-26T09:56:28.796Z,812.97
2019-04-26T09:57:28.803Z,813.01
2019-04-26T09:58:30.689Z,813.04
2019-04-26T09:59:28.820Z,813.14
2019-04-26T10:00:28.829Z,813.14
2019-04-26T10:01:28.837Z,813.10
2019-04-26T10:02:29.550Z,813.13
2019-04-26T10:03:28.846Z,813.07
2019-04-26T10:04:28.853Z,813.07
2019-04-26T10:05:28.873Z,813.06
2019-04-26T10:06:29.658Z,813.09
2019-04-26T10:07:28.873Z,813.11
2019-04-26T10:08:28.885Z,813.09
2019-04-26T10:09:30.870Z,813.13
2019-04-26T10:10:30.884Z,813.15
2019-04-26T10:11:28.905Z,813.16
2019-04-26T10:12:28.912Z,813.18
2019-04-26T10:13:28.920Z,813.18
2019-04-26T10:14:28.925Z,813.15
2019-04-26T10:15:28.941Z,813.15
2019-04-26T10:16:28.944Z,813.12
2019-04-26T10:17:28.944Z,813.14
2019-04-26T10:18:28.950Z,813.11
2019-04-26T10:19:31.793Z,813.12
2019-04-26T10:20:28.962Z,813.16
2019-04-26T10:21:28.970Z,813.12
2019-04-26T10:22:28.973Z,813.13
2019-04-26T10:23:28.979Z,813.11
2019-04-26T10:24:28.986Z,813.16
2019-04-26T10:25:28.994Z,813.12
2019-04-26T10:26:29.905Z,813.12
2019-04-26T10:27:29.010Z,813.12
2019-04-26T10:28:29.020Z,813.13
2019-04-26T10:29:29.018Z,813.16
2019-04-26T10:30:29.028Z,813.19
2019-04-26T10:31:29.033Z,813.19
2019-04-26T10:32:29.039Z,813.20
2019-04-26T10:33:32.648Z,813.22
2019-04-26T10:34:29.056Z,813.24
2019-04-26T10:35:29.061Z,813.24
2019-04-26T10:36:30.149Z,813.29
2019-04-26T10:37:38.869Z,813.34
2019-04-26T10:38:29.083Z,813.36
2019-04-26T10:39:32.542Z,813.30
2019-04-26T10:40:35.341Z,813.34
2019-04-26T10:41:29.107Z,813.37
2019-04-26T10:42:29.114Z,813.44
2019-04-26T10:43:29.475Z,813.35
2019-04-26T10:44:29.126Z,813.37
2019-04-26T10:45:29.128Z,813.36
2019-04-26T10:46:29.513Z,813.38
2019-04-26T10:47:29.153Z,813.43
2019-04-26T10:48:29.150Z,813.35
2019-04-26T10:49:29.152Z,813.41
2019-04-26T10:50:33.049Z,813.42
2019-04-26T10:51:29.168Z,813.37
2019-04-26T10:52:29.172Z,813.38
2019-04-26T10:53:30.003Z,813.38
2019-04-26T10:54:29.188Z,813.38
2019-04-26T10:55:29.196Z,813.40
2019-04-26T10:56:29.205Z,813.41
2019-04-26T10:57:29.211Z,813.43
2019-04-26T10:58:31.989Z,813.39
2019-04-26T10:59:31.681Z,813.45
2019-04-26T11:00:29.224Z,813.48
2019-04-26T11:01:29.236Z,813.47
2019-04-26T11:02:29.240Z,813.53
2019-04-26T11:03:29.248Z,813.53
2019-04-26T11:04:29.253Z,813.56
2019-04-26T11:05:29.262Z,813.47
2019-04-26T11:06:29.287Z,813.49
2019-04-26T11:07:29.272Z,813.48
2019-04-26T11:08:29.280Z,813.45
2019-04-26T11:09:29.290Z,813.45
2019-04-26T11:10:29.293Z,813.39
2019-04-26T11:11:29.305Z,813.42
2019-04-26T11:12:29.314Z,813.43
2019-04-26T11:13:29.321Z,813.39
2019-04-26T11:14:29.323Z,813.40
2019-04-26T11:15:32.784Z,813.40
2019-04-26T11:16:29.339Z,813.41
2019-04-26T11:17:29.346Z,813.47
2019-04-26T11:18:29.356Z,813.44
2019-04-26T11:19:31.968Z,813.47
2019-04-26T11:20:29.371Z,813.45
2019-04-26T11:21:29.384Z,813.43
2019-04-26T11:22:33.149Z,813.44
2019-04-26T11:23:29.395Z,813.43
2019-04-26T11:24:29.408Z,813.39
2019-04-26T11:25:29.539Z,813.40
2019-04-26T11:26:31.025Z,813.38
2019-04-26T11:27:29.437Z,813.40
2019-04-26T11:28:29.443Z,813.38
2019-04-26T11:29:30.236Z,813.38
2019-04-26T11:30:29.458Z,813.42
2019-04-26T11:31:29.471Z,813.44
2019-04-26T11:32:29.481Z,813.42
2019-04-26T11:33:29.493Z,813.44
2019-04-26T11:34:29.599Z,813.45
2019-04-26T11:35:33.043Z,813.42
2019-04-26T11:36:29.519Z,813.47
2019-04-26T11:37:29.539Z,813.51
2019-04-26T11:38:31.374Z,813.50
2019-04-26T11:39:29.549Z,813.53
2019-04-26T11:40:29.620Z,813.47
2019-04-26T11:41:29.566Z,813.47
2019-04-26T11:42:29.576Z,813.52
2019-04-26T11:43:29.586Z,813.50
2019-04-26T11:44:29.602Z,813.55
2019-04-26T11:45:29.639Z,813.55
2019-04-26T11:46:30.318Z,813.58
2019-04-26T11:47:29.633Z,813.58
2019-04-26T11:48:30.651Z,813.62
2019-04-26T11:49:29.653Z,813.60
2019-04-26T11:50:29.663Z,813.65
2019-04-26T11:51:29.673Z,813.62
2019-04-26T11:52:32.154Z,813.63
2019-04-26T11:53:29.700Z,813.64
2019-04-26T11:54:29.709Z,813.64
2019-04-26T11:55:31.429Z,813.64
2019-04-26T11:56:29.734Z,813.62
2019-04-26T11:57:29.745Z,813.67
2019-04-26T11:58:29.755Z,813.64
2019-04-26T11:59:30.639Z,813.66
2019-04-26T12:00:29.798Z,813.72
2019-04-26T12:01:29.797Z,813.66
2019-04-26T12:02:29.800Z,813.72
2019-04-26T12:03:29.812Z,813.72
2019-04-26T12:04:29.827Z,813.72
2019-04-26T12:05:29.838Z,813.72
2019-04-26T12:06:29.846Z,813.71
2019-04-26T12:07:29.863Z,813.72
2019-04-26T12:08:29.873Z,813.78
2019-04-26T12:09:29.887Z,813.80
2019-04-26T12:10:29.905Z,813.80
2019-04-26T12:11:34.134Z,813.81
2019-04-26T12:12:29.919Z,813.84
2019-04-26T12:13:29.955Z,813.87
2019-04-26T12:14:33.475Z,813.90
2019-04-26T12:15:30.737Z,813.89
2019-04-26T12:16:29.969Z,813.86
2019-04-26T12:17:31.224Z,813.91
2019-04-26T12:18:30.124Z,813.90
2019-04-26T12:19:30.004Z,813.89
2019-04-26T12:20:30.016Z,813.84
2019-04-26T12:21:30.492Z,813.85
2019-04-26T12:22:30.040Z,813.85
2019-04-26T12:23:30.051Z,813.90
2019-04-26T12:24:34.312Z,813.84
2019-04-26T12:25:31.176Z,813.88
2019-04-26T12:26:42.151Z,813.85
2019-04-26T12:27:30.786Z,813.82
2019-04-26T12:28:30.109Z,813.80